Time;durP1;ratioP1;P1;durP2;ratioP2;P2;SDS_P1;SDS_P2;PMS_P1;PMS_P2;Temp;Humidity;BMP_temperature;BMP_pressure;BME280_temperature;BME280_humidity;BME280_pressure;Samples;Min_cycle;Max_cycle;Signal;HPM_P1;HPM_P2
2023/01/01 00:02:08;;;;;;;6.13;4.93;;;;;;;15.47;62.88;100492.09;5992521;29;20307;-68
2023/01/01 00:05:29;;;;;;;8.77;3.67;;;;;;;15.44;62.97;100489.72;5989652;29;20249;-70
2023/01/01 00:10:26;;;;;;;4.07;3.73;;;;;;;15.37;63.66;100495.00;6010431;29;20246;-68
2023/01/01 00:12:33;;;;;;;4.13;3.67;;;;;;;15.41;63.28;100501.78;6014507;29;20231;-69
2023/01/01 00:15:54;;;;;;;6.90;4.33;;;;;;;15.46;62.71;100518.41;6009051;29;20242;-69
2023/01/01 00:19:15;;;;;;;2.50;2.30;;;;;;;15.54;62.15;100504.78;5995232;29;20239;-68
2023/01/01 00:22:36;;;;;;;5.37;2.67;;;;;;;15.61;62.16;100513.09;6022652;29;20239;-69
2023/01/01 00:25:58;;;;;;;6.17;3.43;;;;;;;15.42;62.90;100500.75;6006645;29;20234;-68
2023/01/01 00:29:21;;;;;;;5.73;2.33;;;;;;;15.43;63.00;100496.19;6015241;29;20239;-68
2023/01/01 00:32:42;;;;;;;4.73;2.60;;;;;;;15.50;62.51;100505.34;5991475;29;20621;-69
2023/01/01 00:36:06;;;;;;;11.97;2.97;;;;;;;15.43;63.01;100498.91;5999694;29;20234;-68
2023/01/01 00:39:27;;;;;;;2.63;2.43;;;;;;;15.51;62.14;100491.59;6004633;29;20239;-68
2023/01/01 00:42:49;;;;;;;5.37;3.33;;;;;;;15.52;62.00;100506.84;6002028;29;21279;-69
2023/01/01 00:46:12;;;;;;;4.23;2.57;;;;;;;15.43;62.40;100501.63;5994629;29;20324;-69
2023/01/01 00:49:33;;;;;;;4.47;3.30;;;;;;;15.44;62.63;100520.47;6000165;29;20238;-67
2023/01/01 00:52:54;;;;;;;5.60;3.10;;;;;;;15.48;62.74;100529.97;6012337;29;21493;-68
2023/01/01 00:56:15;;;;;;;5.43;3.40;;;;;;;15.52;62.14;100517.72;6009395;29;20245;-68
2023/01/01 00:59:36;;;;;;;8.23;2.80;;;;;;;15.51;62.36;100528.75;6006361;29;20238;-68
2023/01/01 01:02:58;;;;;;;5.10;2.53;;;;;;;15.55;62.18;100513.81;5994689;29;20575;-69
2023/01/01 01:06:20;;;;;;;7.90;3.87;;;;;;;15.63;61.94;100516.47;6002286;29;20869;-69
2023/01/01 01:09:40;;;;;;;5.70;2.70;;;;;;;15.54;62.19;100531.16;5995367;29;21534;-69
2023/01/01 01:13:01;;;;;;;6.33;3.60;;;;;;;15.55;62.05;100544.53;6010178;29;20266;-68
2023/01/01 01:16:24;;;;;;;6.93;4.17;;;;;;;15.62;61.69;100539.25;6005789;29;20629;-68
2023/01/01 01:19:46;;;;;;;5.83;2.30;;;;;;;15.50;62.38;100555.06;5996145;29;20242;-70
2023/01/01 01:23:07;;;;;;;8.03;3.47;;;;;;;15.61;62.07;100540.25;6018619;29;20238;-69
2023/01/01 01:26:31;;;;;;;8.60;2.47;;;;;;;15.61;61.67;100534.81;6006504;29;20234;-69
2023/01/01 01:29:52;;;;;;;2.47;2.03;;;;;;;15.61;61.59;100543.84;5998990;29;20594;-69
2023/01/01 01:33:13;;;;;;;3.23;2.60;;;;;;;15.57;62.07;100555.22;6011934;29;20243;-69
2023/01/01 01:36:35;;;;;;;4.20;2.30;;;;;;;15.58;61.50;100527.88;6003783;29;20241;-70
2023/01/01 01:39:57;;;;;;;7.60;2.87;;;;;;;15.61;61.81;100552.00;5995806;29;20234;-69
2023/01/01 01:43:22;;;;;;;5.07;3.73;;;;;;;15.58;61.22;100570.53;6019696;29;20227;-69
2023/01/01 01:46:45;;;;;;;4.87;2.17;;;;;;;15.57;61.80;100569.66;6009632;29;20267;-69
2023/01/01 01:50:11;;;;;;;4.93;2.80;;;;;;;15.56;61.64;100559.81;6005803;29;20241;-69
2023/01/01 01:53:37;;;;;;;3.70;2.23;;;;;;;15.59;61.26;100564.03;6015622;29;20267;-69
2023/01/01 01:57:03;;;;;;;11.63;4.37;;;;;;;15.55;61.45;100565.44;6006815;29;20277;-69
2023/01/01 02:00:24;;;;;;;4.37;1.97;;;;;;;15.53;61.20;100560.19;6001421;29;20277;-69
2023/01/01 02:03:51;;;;;;;13.67;3.73;;;;;;;15.58;61.37;100555.03;5995428;29;20238;-68
2023/01/01 02:07:14;;;;;;;5.47;1.97;;;;;;;15.64;61.05;100569.81;6007021;29;20224;-68
2023/01/01 02:10:37;;;;;;;3.70;2.00;;;;;;;15.61;61.16;100576.44;6000830;29;20249;-69
2023/01/01 02:14:00;;;;;;;7.30;3.43;;;;;;;15.68;60.73;100560.28;6013963;29;20238;-69
2023/01/01 02:17:24;;;;;;;5.23;2.80;;;;;;;15.59;61.06;100567.63;5991830;29;20242;-69
2023/01/01 02:20:50;;;;;;;7.43;2.10;;;;;;;15.62;61.16;100577.31;5982210;29;20267;-69
2023/01/01 02:24:34;;;;;;;8.10;3.10;;;;;;;15.64;61.14;100592.41;5989000;29;20243;-69
2023/01/01 02:28:04;;;;;;;4.63;2.90;;;;;;;15.73;60.79;100574.16;6005363;29;20239;-69
2023/01/01 02:31:29;;;;;;;2.90;2.20;;;;;;;15.70;60.72;100597.16;6001657;29;20241;-68
2023/01/01 02:34:55;;;;;;;5.13;2.83;;;;;;;15.62;61.26;100590.88;5994537;29;20235;-68
2023/01/01 02:38:21;;;;;;;5.17;2.53;;;;;;;15.65;60.83;100585.94;6010960;29;20227;-69
2023/01/01 02:41:46;;;;;;;2.50;1.67;;;;;;;15.66;61.23;100595.81;5994693;29;20244;-69
2023/01/01 02:45:09;;;;;;;6.30;2.10;;;;;;;15.66;61.06;100603.97;5976400;29;20575;-69
2023/01/01 02:48:41;;;;;;;2.23;2.03;;;;;;;15.63;61.50;100609.72;6016177;29;20859;-71
2023/01/01 02:52:07;;;;;;;2.33;2.10;;;;;;;15.62;61.62;100612.63;6016861;29;20229;-69
2023/01/01 02:55:36;;;;;;;3.90;3.03;;;;;;;15.64;61.57;100602.44;6002019;29;20253;-69
2023/01/01 03:03:03;;;;;;;4.03;2.30;;;;;;;15.49;63.43;100618.59;6006644;29;20235;-69
2023/01/01 03:06:31;;;;;;;9.77;3.03;;;;;;;15.33;64.38;100625.91;6017463;29;20230;-69
2023/01/01 03:09:59;;;;;;;3.23;2.20;;;;;;;15.17;65.83;100608.63;6005262;29;20255;-69
2023/01/01 03:13:31;;;;;;;9.00;3.43;;;;;;;15.10;66.84;100612.22;6020938;29;20253;-69
2023/01/01 03:16:58;;;;;;;1.30;1.20;;;;;;;15.06;66.99;100619.00;6002827;29;20628;-69
2023/01/01 03:20:24;;;;;;;4.50;2.67;;;;;;;15.01;67.49;100610.50;5999003;29;20337;-70
2023/01/01 03:23:53;;;;;;;3.13;2.70;;;;;;;15.01;67.46;100614.09;6022835;29;20223;-69
2023/01/01 03:27:19;;;;;;;3.50;3.20;;;;;;;15.02;67.47;100620.34;6013155;29;20512;-70
2023/01/01 03:30:42;;;;;;;6.40;2.77;;;;;;;14.94;68.06;100607.63;6001176;29;20266;-69
2023/01/01 03:34:10;;;;;;;8.63;3.10;;;;;;;14.94;68.19;100606.78;6010553;29;20263;-71
2023/01/01 03:37:31;;;;;;;9.97;2.73;;;;;;;14.93;68.36;100610.53;6000439;29;20238;-70
2023/01/01 03:41:00;;;;;;;5.77;3.83;;;;;;;14.99;67.93;100628.84;6006740;29;20668;-69
2023/01/01 03:44:28;;;;;;;6.73;3.27;;;;;;;14.98;67.93;100633.41;6011600;29;20549;-69
2023/01/01 03:47:49;;;;;;;5.60;2.57;;;;;;;14.96;67.78;100631.88;5995493;29;20230;-69
2023/01/01 03:51:18;;;;;;;5.63;2.43;;;;;;;14.91;68.09;100634.28;5983981;29;20238;-68
2023/01/01 03:54:46;;;;;;;5.50;2.73;;;;;;;15.00;67.56;100639.53;6006820;29;20235;-68
2023/01/01 03:58:13;;;;;;;4.97;2.60;;;;;;;15.00;67.42;100652.25;6003937;29;20262;-69
2023/01/01 04:01:41;;;;;;;5.40;3.13;;;;;;;14.98;67.92;100632.56;6006996;29;20264;-68
2023/01/01 04:05:06;;;;;;;4.17;2.80;;;;;;;14.96;67.41;100659.03;6006154;29;20231;-69
2023/01/01 04:08:27;;;;;;;2.53;2.33;;;;;;;14.92;68.26;100646.81;6011008;29;20235;-69
2023/01/01 04:12:03;;;;;;;3.73;3.23;;;;;;;15.02;67.36;100632.06;6006203;29;20237;-69
2023/01/01 04:15:27;;;;;;;2.90;1.80;;;;;;;15.02;67.46;100647.47;5999640;29;20238;-69
2023/01/01 04:18:48;;;;;;;2.80;2.60;;;;;;;14.99;67.61;100653.28;6003032;29;20235;-69
2023/01/01 04:22:09;;;;;;;8.17;4.47;;;;;;;14.94;67.83;100647.50;6015373;29;20557;-69
2023/01/01 04:25:30;;;;;;;6.20;2.20;;;;;;;14.95;67.85;100646.50;6009246;29;20250;-69
2023/01/01 04:28:51;;;;;;;5.53;2.63;;;;;;;14.98;67.77;100625.28;6005538;29;20626;-69
2023/01/01 04:32:13;;;;;;;4.73;2.73;;;;;;;15.00;67.51;100652.25;6000259;29;20264;-69
2023/01/01 04:35:34;;;;;;;7.50;4.20;;;;;;;14.99;67.62;100683.13;6007113;29;20269;-70
2023/01/01 04:38:55;;;;;;;3.77;1.90;;;;;;;14.97;67.40;100675.16;6007563;29;20267;-69
2023/01/01 04:42:16;;;;;;;3.03;2.70;;;;;;;14.96;67.41;100673.47;6000171;29;20231;-70
2023/01/01 04:45:37;;;;;;;5.70;3.30;;;;;;;14.95;67.79;100669.06;5990814;29;20233;-70
2023/01/01 04:48:59;;;;;;;3.87;2.70;;;;;;;14.93;67.41;100673.81;6016606;29;20621;-70
2023/01/01 04:52:20;;;;;;;3.70;2.73;;;;;;;14.90;67.95;100655.13;6019056;29;20234;-69
2023/01/01 04:55:41;;;;;;;2.53;1.77;;;;;;;14.89;67.46;100664.31;6011066;29;20261;-70
2023/01/01 04:59:02;;;;;;;3.83;2.00;;;;;;;14.94;66.77;100669.22;6021947;29;20621;-69
2023/01/01 05:02:23;;;;;;;6.13;3.47;;;;;;;15.01;66.07;100697.38;6015700;29;20265;-71
2023/01/01 05:05:45;;;;;;;3.37;2.73;;;;;;;15.06;65.94;100670.59;6004431;29;20616;-71
2023/01/01 05:09:08;;;;;;;2.63;2.00;;;;;;;15.05;65.80;100650.72;6017466;29;20246;-69
2023/01/01 05:12:30;;;;;;;4.30;3.60;;;;;;;15.07;65.57;100648.69;6019190;29;20238;-72
2023/01/01 05:15:51;;;;;;;4.90;2.00;;;;;;;15.11;64.77;100658.19;6013756;29;20238;-69
2023/01/01 05:19:12;;;;;;;4.73;2.97;;;;;;;15.13;64.69;100652.59;6020006;29;20269;-70
2023/01/01 05:22:35;;;;;;;6.50;2.70;;;;;;;15.07;64.69;100643.25;6010859;29;20268;-70
2023/01/01 05:25:57;;;;;;;3.43;2.33;;;;;;;15.10;64.40;100656.47;6000407;29;20242;-70
2023/01/01 05:29:18;;;;;;;2.70;1.50;;;;;;;15.13;63.55;100637.16;5992120;29;20780;-69
2023/01/01 05:32:39;;;;;;;2.80;2.60;;;;;;;15.14;64.14;100667.88;6008876;29;20231;-70
2023/01/01 05:36:00;;;;;;;1.90;1.40;;;;;;;15.14;63.23;100679.56;6007175;29;20353;-70
2023/01/01 05:39:22;;;;;;;4.57;2.10;;;;;;;15.10;63.52;100672.78;5996566;29;20326;-69
2023/01/01 05:42:43;;;;;;;5.87;3.23;;;;;;;15.22;62.44;100689.59;5999206;29;20253;-71
2023/01/01 05:46:06;;;;;;;3.63;2.33;;;;;;;15.14;63.05;100690.41;6008510;29;20802;-69
2023/01/01 05:49:27;;;;;;;12.13;3.27;;;;;;;15.14;62.34;100700.47;6011879;29;20610;-70
2023/01/01 05:52:48;;;;;;;2.73;2.10;;;;;;;15.23;61.77;100702.13;6003889;29;20318;-70
2023/01/01 05:56:11;;;;;;;2.70;2.07;;;;;;;15.18;61.76;100691.81;5998808;29;20718;-69
2023/01/01 05:59:32;;;;;;;2.97;2.17;;;;;;;15.17;61.92;100706.38;6008287;29;20238;-69
2023/01/01 06:02:53;;;;;;;4.80;3.47;;;;;;;15.15;61.86;100694.84;5972746;29;20657;-69
2023/01/01 06:06:17;;;;;;;2.10;1.40;;;;;;;15.19;61.49;100692.63;5977105;29;20230;-69
2023/01/01 06:09:37;;;;;;;1.73;1.50;;;;;;;15.22;61.03;100733.03;6006461;29;20246;-69
2023/01/01 06:13:00;;;;;;;2.83;2.00;;;;;;;15.23;60.50;100696.69;6014589;29;20246;-69
2023/01/01 06:16:21;;;;;;;4.33;1.73;;;;;;;15.31;60.36;100710.28;6005046;29;20229;-70
2023/01/01 06:19:42;;;;;;;3.33;1.50;;;;;;;15.20;60.53;100695.19;5996538;29;20235;-69
2023/01/01 06:23:03;;;;;;;5.93;1.53;;;;;;;15.20;60.41;100702.50;6000890;29;20235;-69
2023/01/01 06:26:27;;;;;;;3.87;1.60;;;;;;;15.23;60.23;100724.72;5995460;29;20285;-70
2023/01/01 06:29:49;;;;;;;1.80;1.20;;;;;;;15.26;60.09;100736.25;5998336;29;20239;-70
2023/01/01 06:33:10;;;;;;;2.43;1.77;;;;;;;15.21;59.71;100724.03;6016495;29;20239;-69
2023/01/01 06:36:31;;;;;;;1.70;1.10;;;;;;;15.21;60.13;100736.75;6006508;29;20847;-69
2023/01/01 06:39:52;;;;;;;5.77;2.67;;;;;;;15.23;59.84;100744.75;5999647;29;20251;-69
2023/01/01 06:43:13;;;;;;;2.27;1.40;;;;;;;15.20;59.89;100764.94;6018207;29;20227;-69
2023/01/01 06:46:36;;;;;;;3.63;2.00;;;;;;;15.19;59.84;100738.78;6001212;29;20317;-69
2023/01/01 06:49:57;;;;;;;4.77;2.33;;;;;;;15.16;59.85;100761.69;6002793;29;20234;-71
2023/01/01 06:53:17;;;;;;;1.63;1.30;;;;;;;15.17;59.43;100757.13;6006742;29;20234;-69
2023/01/01 06:56:39;;;;;;;2.67;2.07;;;;;;;15.11;59.47;100768.66;6005989;29;20633;-69
2023/01/01 07:00:00;;;;;;;2.50;1.60;;;;;;;15.08;60.27;100785.31;6001601;29;20288;-68
2023/01/01 07:03:22;;;;;;;8.40;2.43;;;;;;;15.12;59.31;100781.25;6014527;29;20324;-69
2023/01/01 07:06:43;;;;;;;4.20;2.63;;;;;;;15.15;59.54;100795.31;6014787;29;20238;-71
2023/01/01 07:10:04;;;;;;;1.93;1.83;;;;;;;15.07;59.25;100746.44;6005329;29;20254;-69
2023/01/01 07:13:26;;;;;;;1.87;1.57;;;;;;;15.05;59.53;100764.75;6021438;29;20243;-69
2023/01/01 07:16:47;;;;;;;5.53;2.17;;;;;;;14.98;59.96;100761.00;6011539;29;20234;-69
2023/01/01 07:20:10;;;;;;;5.87;2.00;;;;;;;14.92;60.01;100767.13;6013828;29;20612;-69
2023/01/01 07:23:33;;;;;;;3.60;2.90;;;;;;;14.94;59.99;100769.66;6012180;29;20241;-69
2023/01/01 07:26:54;;;;;;;6.10;2.10;;;;;;;14.90;60.30;100790.88;5983538;29;20235;-69
2023/01/01 07:30:15;;;;;;;2.97;1.70;;;;;;;14.88;60.22;100801.03;5976077;29;20249;-69
2023/01/01 07:33:36;;;;;;;3.87;2.40;;;;;;;14.89;60.16;100793.75;6004368;29;20232;-70
2023/01/01 07:36:58;;;;;;;2.40;2.20;;;;;;;14.83;60.17;100810.69;6008435;29;20246;-69
2023/01/01 07:40:19;;;;;;;2.10;1.63;;;;;;;14.84;60.21;100843.09;6000465;29;20603;-70
2023/01/01 07:43:40;;;;;;;3.47;1.67;;;;;;;14.79;60.14;100821.00;6003114;29;20307;-69
2023/01/01 07:47:05;;;;;;;3.23;2.30;;;;;;;14.78;60.17;100829.34;5999700;29;21355;-69
2023/01/01 07:50:28;;;;;;;1.70;1.10;;;;;;;14.83;59.71;100854.13;5981999;29;20258;-69
2023/01/01 07:53:51;;;;;;;3.03;1.40;;;;;;;14.79;59.60;100841.91;6016129;29;20258;-69
2023/01/01 07:57:11;;;;;;;2.47;1.77;;;;;;;14.87;58.61;100882.66;6004116;29;20238;-69
2023/01/01 08:00:32;;;;;;;5.70;2.17;;;;;;;14.81;58.89;100856.16;5994199;29;20318;-69
2023/01/01 08:03:53;;;;;;;4.07;2.73;;;;;;;14.83;58.63;100859.56;5985299;29;20255;-68
2023/01/01 08:07:14;;;;;;;4.30;1.30;;;;;;;14.81;58.91;100873.28;6014311;29;20265;-68
2023/01/01 08:10:37;;;;;;;5.93;1.60;;;;;;;14.79;58.85;100875.31;6009088;29;20243;-66
2023/01/01 08:13:58;;;;;;;1.40;0.60;;;;;;;14.79;58.86;100864.44;6013267;29;20247;-66
2023/01/01 08:17:18;;;;;;;2.07;1.00;;;;;;;14.76;59.06;100878.34;6012723;29;20257;-66
2023/01/01 08:20:39;;;;;;;5.27;1.20;;;;;;;14.76;59.52;100885.63;6007971;29;20404;-66
2023/01/01 08:24:00;;;;;;;0.90;0.90;;;;;;;14.74;58.94;100896.66;6022913;29;20330;-66
2023/01/01 08:27:22;;;;;;;2.93;1.87;;;;;;;14.75;58.74;100901.06;6004285;29;20232;-66
2023/01/01 08:30:43;;;;;;;3.07;1.00;;;;;;;14.73;59.17;100910.38;6006256;29;20254;-67
2023/01/01 08:34:05;;;;;;;1.27;1.17;;;;;;;14.69;58.61;100896.28;6016151;29;20234;-66
2023/01/01 08:37:26;;;;;;;1.00;0.80;;;;;;;14.72;57.87;100949.41;6014285;29;20242;-67
2023/01/01 08:40:47;;;;;;;1.70;0.93;;;;;;;14.66;58.11;100915.63;6002817;29;20238;-69
2023/01/01 08:44:09;;;;;;;1.63;1.10;;;;;;;14.66;57.78;100925.63;6002795;29;20238;-68
2023/01/01 08:47:30;;;;;;;0.97;0.63;;;;;;;14.61;57.98;100925.25;6006061;29;20238;-69
2023/01/01 08:50:54;;;;;;;2.77;1.60;;;;;;;14.62;57.73;100926.97;6000052;29;20238;-68
2023/01/01 08:54:15;;;;;;;1.10;1.10;;;;;;;14.59;57.94;100938.97;6025830;29;20235;-68
2023/01/01 08:57:36;;;;;;;1.27;1.10;;;;;;;14.59;58.54;100959.81;6020568;29;20291;-72
2023/01/01 09:00:58;;;;;;;2.57;2.37;;;;;;;14.62;58.60;100964.94;6012664;29;20711;-71
2023/01/01 09:04:19;;;;;;;3.93;1.07;;;;;;;14.62;58.82;100964.94;6025061;29;20238;-72
2023/01/01 09:07:40;;;;;;;2.43;1.70;;;;;;;14.65;57.96;100999.88;6016620;29;20230;-69
2023/01/01 09:11:02;;;;;;;3.13;1.33;;;;;;;14.66;57.89;100969.91;6012715;29;21024;-70
2023/01/01 09:14:23;;;;;;;1.00;1.00;;;;;;;14.66;57.18;101007.03;6017313;29;20238;-70
2023/01/01 09:17:45;;;;;;;1.20;0.83;;;;;;;14.70;56.78;100984.00;6026615;29;20227;-69
2023/01/01 09:21:06;;;;;;;1.37;1.00;;;;;;;14.73;56.74;100992.66;6009657;29;20525;-69
2023/01/01 09:24:27;;;;;;;0.77;0.60;;;;;;;14.68;56.82;100999.56;6013472;29;20234;-68
2023/01/01 09:27:48;;;;;;;0.70;0.70;;;;;;;14.69;56.76;101014.84;6009241;29;20266;-69
2023/01/01 09:31:08;;;;;;;0.90;0.90;;;;;;;14.64;56.65;101028.91;6003499;29;20246;-72
2023/01/01 09:34:31;;;;;;;0.50;0.50;;;;;;;14.73;56.87;101048.78;6009917;29;20235;-70
2023/01/01 09:37:52;;;;;;;1.20;0.60;;;;;;;14.86;56.37;101044.66;5989342;29;20235;-69
2023/01/01 09:41:21;;;;;;;3.03;2.00;;;;;;;15.52;54.56;101063.88;6006725;29;20633;-69
2023/01/01 09:44:53;;;;;;;2.87;1.90;;;;;;;15.20;54.49;101086.28;6006553;29;20493;-69
2023/01/01 09:48:16;;;;;;;1.33;0.70;;;;;;;14.82;55.38;101092.13;6011300;29;20238;-69
2023/01/01 09:51:41;;;;;;;2.33;0.90;;;;;;;14.60;55.97;101087.22;6002268;29;20841;-69
2023/01/01 09:55:11;;;;;;;0.60;0.60;;;;;;;14.56;55.66;101076.81;6002878;29;20238;-69
2023/01/01 09:58:33;;;;;;;2.27;0.80;;;;;;;14.52;55.73;101070.84;6019139;29;20230;-68
2023/01/01 10:02:01;;;;;;;2.43;1.43;;;;;;;14.50;55.41;101089.13;6016988;29;20573;-69
2023/01/01 10:05:33;;;;;;;1.13;1.07;;;;;;;14.58;56.53;101105.47;5995164;29;20246;-70
2023/01/01 10:09:07;;;;;;;2.83;2.30;;;;;;;14.90;55.92;101113.03;5999352;29;20326;-66
2023/01/01 10:12:36;;;;;;;15.90;11.37;;;;;;;14.83;56.80;101126.38;5998841;29;20239;-71
2023/01/01 10:16:00;;;;;;;6.50;3.57;;;;;;;14.98;57.18;101108.53;6002028;29;20248;-67
2023/01/01 10:19:28;;;;;;;1.60;1.13;;;;;;;14.68;58.33;101133.41;6004236;29;20266;-67
2023/01/01 10:22:52;;;;;;;5.13;1.13;;;;;;;14.72;59.12;101126.66;6007999;29;20234;-70
2023/01/01 10:26:17;;;;;;;1.87;0.97;;;;;;;14.56;59.36;101120.25;6013217;29;20230;-68
2023/01/01 10:29:43;;;;;;;1.73;1.53;;;;;;;14.61;58.92;101112.47;6017507;29;20246;-68
2023/01/01 10:33:11;;;;;;;1.17;0.90;;;;;;;14.54;58.49;101123.09;6006433;29;20238;-69
2023/01/01 10:36:31;;;;;;;1.43;1.33;;;;;;;14.58;56.61;101105.47;6014044;29;20234;-69
2023/01/01 10:39:52;;;;;;;0.93;0.80;;;;;;;14.67;55.26;101114.56;5999245;29;20258;-69
2023/01/01 10:43:14;;;;;;;1.23;0.87;;;;;;;15.05;53.72;101150.34;6025660;29;20238;-70
2023/01/01 10:46:40;;;;;;;1.47;1.37;;;;;;;16.36;49.87;101110.00;5998854;29;20602;-69
2023/01/01 10:50:06;;;;;;;3.33;0.60;;;;;;;17.73;45.33;101109.94;6000616;29;20324;-69
2023/01/01 10:53:30;;;;;;;1.30;0.55;;;;;;;17.48;45.57;101120.88;6011519;29;20234;-70
2023/01/01 10:56:51;;;;;;;1.00;0.50;;;;;;;18.75;42.72;101119.59;5997456;29;20628;-70
2023/01/01 11:00:24;;;;;;;1.23;1.00;;;;;;;18.51;42.67;101111.56;5966898;29;20261;-69
2023/01/01 11:03:54;;;;;;;2.90;1.17;;;;;;;18.49;42.68;101116.34;6020285;29;20238;-70
2023/01/01 11:07:24;;;;;;;2.47;0.88;;;;;;;18.65;42.28;101115.41;6012353;29;20239;-70
2023/01/01 11:10:51;;;;;;;0.70;0.50;;;;;;;19.47;40.73;101150.00;6009529;29;20233;-69
2023/01/01 11:14:21;;;;;;;1.25;0.40;;;;;;;18.56;42.24;101132.88;5953739;29;20652;-69
2023/01/01 11:17:43;;;;;;;0.77;0.57;;;;;;;18.34;42.21;101135.34;5989863;29;20238;-69
2023/01/01 11:21:06;;;;;;;4.57;1.58;;;;;;;19.15;40.84;101116.47;6011549;29;20246;-67
2023/01/01 11:24:28;;;;;;;2.90;1.33;;;;;;;18.89;41.26;101135.16;5996725;29;20239;-67
2023/01/01 11:27:50;;;;;;;0.57;0.50;;;;;;;17.86;43.03;101153.84;5992606;29;20733;-71
2023/01/01 11:31:15;;;;;;;0.73;0.70;;;;;;;18.47;41.71;101158.50;6008855;29;20234;-69
2023/01/01 11:34:41;;;;;;;3.03;0.70;;;;;;;18.41;42.09;101167.41;6015604;29;20231;-68
2023/01/01 11:38:03;;;;;;;0.73;0.60;;;;;;;17.45;42.84;101183.94;6011571;29;20242;-71
2023/01/01 11:41:23;;;;;;;4.90;0.82;;;;;;;17.82;43.04;101167.00;6025099;29;20269;-69
2023/01/01 11:44:48;;;;;;;1.48;1.15;;;;;;;17.11;43.99;101190.59;6020639;29;20246;-69
2023/01/01 11:48:16;;;;;;;0.82;0.82;;;;;;;16.38;45.67;101184.16;6010976;29;20333;-70
2023/01/01 11:51:38;;;;;;;0.88;0.80;;;;;;;16.43;45.66;101207.16;6016714;29;20246;-69
2023/01/01 11:55:08;;;;;;;3.67;1.48;;;;;;;16.54;45.62;101187.00;6010078;29;20238;-69
2023/01/01 11:58:37;;;;;;;4.25;1.33;;;;;;;15.94;47.36;101199.81;5996937;29;20235;-68
2023/01/01 12:02:02;;;;;;;2.85;1.13;;;;;;;15.78;47.84;101194.31;5992837;29;20603;-68
2023/01/01 12:05:26;;;;;;;0.40;0.40;;;;;;;15.57;48.27;101193.84;6003894;29;20246;-69
2023/01/01 12:08:53;;;;;;;0.55;0.55;;;;;;;16.25;46.48;101192.81;6024225;29;20266;-69
2023/01/01 12:12:20;;;;;;;1.40;0.95;;;;;;;17.14;44.38;101187.53;6015667;29;20988;-67
2023/01/01 12:15:49;;;;;;;0.60;0.55;;;;;;;17.61;42.93;101204.06;6005516;29;20246;-69
2023/01/01 12:19:15;;;;;;;2.45;0.65;;;;;;;18.60;40.60;101195.16;6021136;29;20256;-69
2023/01/01 12:22:36;;;;;;;0.60;0.60;;;;;;;17.22;43.61;101212.91;6007920;29;20256;-69
2023/01/01 12:26:09;;;;;;;2.63;0.90;;;;;;;17.51;43.69;101218.72;6015877;29;20312;-69
2023/01/01 12:29:53;;;;;;;2.00;1.00;;;;;;;17.50;43.60;101235.25;6028871;29;20657;-69
2023/01/01 12:33:37;;;;;;;1.23;0.80;;;;;;;16.77;45.40;101246.06;6009672;29;20246;-69
2023/01/01 12:37:06;;;;;;;1.20;1.10;;;;;;;16.27;46.98;101258.78;6016811;29;20262;-69
2023/01/01 12:40:37;;;;;;;0.70;0.70;;;;;;;16.29;47.25;101250.50;6010408;29;20264;-69
2023/01/01 12:44:07;;;;;;;0.98;0.75;;;;;;;16.55;46.84;101264.91;6020046;29;20329;-69
2023/01/01 12:47:42;;;;;;;0.73;0.73;;;;;;;15.63;49.02;101255.72;6022786;29;20273;-70
2023/01/01 12:51:15;;;;;;;1.27;1.13;;;;;;;15.11;50.87;101271.91;6013541;29;20242;-69
2023/01/01 12:55:01;;;;;;;1.60;1.48;;;;;;;15.20;50.86;101281.84;6020698;29;20260;-70
2023/01/01 12:58:27;;;;;;;1.27;0.75;;;;;;;15.32;50.78;101279.72;6020295;29;20231;-70
2023/01/01 13:01:55;;;;;;;0.82;0.82;;;;;;;15.99;48.92;101269.06;6027660;29;20237;-69
2023/01/01 13:05:20;;;;;;;0.60;0.60;;;;;;;16.51;48.00;101267.09;6015861;29;20666;-68
2023/01/01 13:08:43;;;;;;;0.90;0.90;;;;;;;15.79;50.02;101291.19;6023329;29;20242;-69
2023/01/01 13:12:07;;;;;;;5.40;1.27;;;;;;;15.06;52.03;101286.97;6031660;29;20340;-68
2023/01/01 13:15:47;;;;;;;5.03;1.10;;;;;;;15.19;51.84;101282.00;6014170;29;20246;-68
2023/01/01 13:19:25;;;;;;;2.38;0.90;;;;;;;14.95;52.86;101298.91;6025613;29;20266;-69
2023/01/01 13:22:47;;;;;;;1.43;1.33;;;;;;;15.14;52.65;101309.59;6021353;29;20238;-68
2023/01/01 13:26:35;;;;;;;2.83;1.20;;;;;;;14.57;54.03;101290.16;6016382;29;20246;-69
2023/01/01 13:29:55;;;;;;;2.40;1.40;;;;;;;14.51;54.39;101304.31;5999244;29;20239;-70
2023/01/01 13:33:22;;;;;;;1.10;1.00;;;;;;;14.49;54.60;101292.78;6013471;29;20234;-69
2023/01/01 13:36:45;;;;;;;1.63;1.00;;;;;;;14.59;54.28;101280.88;6023591;29;20280;-69
2023/01/01 13:40:52;;;;;;;2.60;1.37;;;;;;;14.24;55.42;101291.59;6010655;29;20239;-69
2023/01/01 13:44:19;;;;;;;7.20;1.83;;;;;;;14.03;56.05;101305.38;6012281;29;20239;-70
2023/01/01 13:48:00;;;;;;;4.13;1.87;;;;;;;13.93;56.93;101315.38;6013207;29;20337;-69
2023/01/01 13:51:51;;;;;;;2.20;1.40;;;;;;;14.07;56.18;101333.03;6012021;29;20523;-69
2023/01/01 13:55:38;;;;;;;1.70;1.60;;;;;;;13.82;57.12;101323.69;6013382;29;20249;-69
2023/01/01 13:59:32;;;;;;;1.90;1.27;;;;;;;13.84;57.44;101332.53;6018163;29;20644;-69
2023/01/01 14:02:59;;;;;;;3.63;1.30;;;;;;;13.65;57.99;101324.41;6001411;29;20251;-68
2023/01/01 14:06:28;;;;;;;0.70;0.70;;;;;;;13.69;58.21;101330.41;6011038;29;20257;-68
2023/01/01 14:09:50;;;;;;;0.90;0.90;;;;;;;13.57;57.96;101327.88;6013868;29;20246;-68
2023/01/01 14:13:16;;;;;;;1.47;1.37;;;;;;;13.69;58.61;101330.41;5990024;29;20243;-65
2023/01/01 14:16:37;;;;;;;4.27;1.80;;;;;;;13.66;59.72;101328.84;6010290;29;20234;-66
2023/01/01 14:19:58;;;;;;;3.03;1.00;;;;;;;13.77;60.17;101342.22;6001667;29;20238;-68
2023/01/01 14:23:23;;;;;;;1.87;1.10;;;;;;;13.82;60.36;101334.53;6013463;29;20239;-66
2023/01/01 14:26:45;;;;;;;5.23;1.80;;;;;;;13.81;60.09;101340.94;6001708;29;20245;-66
2023/01/01 14:30:14;;;;;;;3.03;1.20;;;;;;;13.71;59.28;101345.50;6001997;29;20767;-66
2023/01/01 14:33:35;;;;;;;4.40;2.03;;;;;;;13.67;59.23;101359.50;6017345;29;20230;-63
2023/01/01 14:36:58;;;;;;;2.83;1.20;;;;;;;13.45;59.44;101363.38;6007517;29;20242;-69
2023/01/01 14:40:27;;;;;;;1.47;0.90;;;;;;;13.28;60.15;101367.66;5999214;29;20237;-71
2023/01/01 14:43:51;;;;;;;1.63;0.80;;;;;;;13.30;60.19;101365.66;6009420;29;20251;-70
2023/01/01 14:47:22;;;;;;;1.90;1.40;;;;;;;13.25;60.08;101373.31;6005001;29;20238;-70
2023/01/01 14:50:47;;;;;;;1.83;1.60;;;;;;;13.23;60.51;101375.31;6005675;29;20241;-69
2023/01/01 14:54:15;;;;;;;3.20;1.03;;;;;;;13.05;61.18;101386.97;6024552;29;20677;-71
2023/01/01 14:57:37;;;;;;;4.10;1.33;;;;;;;13.01;61.31;101399.06;6005577;29;20584;-71
2023/01/01 15:04:30;;;;;;;2.50;1.97;;;;;;;13.02;61.84;101407.03;6333819;27;21975;-71
2023/01/01 15:07:56;;;;;;;4.00;2.30;;;;;;;12.98;62.48;101410.13;6315900;28;20231;-71
2023/01/01 15:11:17;;;;;;;2.37;1.83;;;;;;;12.94;62.21;101414.97;6312096;27;20230;-72
2023/01/01 15:14:41;;;;;;;2.60;1.40;;;;;;;12.88;62.46;101415.53;6313703;27;20218;-70
2023/01/01 15:18:02;;;;;;;6.70;3.40;;;;;;;12.85;63.08;101413.09;6295324;27;20617;-70
2023/01/01 15:21:37;;;;;;;5.70;1.67;;;;;;;12.79;63.44;101436.16;6320235;27;20532;-70
2023/01/01 15:24:59;;;;;;;4.30;1.07;;;;;;;12.76;63.25;101430.16;6305183;27;20249;-71
2023/01/01 15:28:21;;;;;;;9.47;1.53;;;;;;;12.78;63.62;101439.88;6330765;27;20223;-70
2023/01/01 15:31:44;;;;;;;12.43;3.87;;;;;;;12.76;63.69;101438.28;6316617;27;20710;-70
2023/01/01 15:35:18;;;;;;;3.33;1.00;;;;;;;12.72;64.62;101436.84;6310128;27;20226;-71
2023/01/01 15:38:41;;;;;;;2.70;2.47;;;;;;;12.75;64.45;101460.91;6325328;27;20233;-68
2023/01/01 15:42:02;;;;;;;2.43;1.53;;;;;;;12.71;64.66;101470.28;6320294;27;20233;-70
2023/01/01 15:45:28;;;;;;;3.50;1.80;;;;;;;12.66;64.76;101464.44;6312711;27;20225;-70
2023/01/01 15:48:51;;;;;;;4.10;2.33;;;;;;;12.68;64.73;101473.28;6327772;27;20230;-70
2023/01/01 15:52:22;;;;;;;2.80;1.20;;;;;;;12.63;66.04;101478.22;6318409;27;20519;-72
2023/01/01 15:55:49;;;;;;;2.57;1.07;;;;;;;12.74;65.96;101476.31;6317323;27;20241;-70
2023/01/01 15:59:23;;;;;;;7.60;1.73;;;;;;;12.64;66.11;101463.72;6318916;27;20217;-70